Brownstown, Indiana
Current Conditions -  °F | °C
As of 8:45 AM on Friday 19 Dec 2014 (Local Time) from KBAK Reporting Station
Haze Haze  
Wind Chill: 21°   Ceiling: Unl
Heat Index: 21°   Visibility: 5mi
Dew Point: 21°   Wind: 0mph
Humidity: 100%   Direction: NA
Pressure: 30.32"   Gusts: NA
Location:  38.88°N, 86.04°W
Report Text: KBAK 191345Z 00000KT 5SM BR SKC M06/M06 A3032
Loading
Personal Weather Stations






























Interactive Weather Map New forecast layout! Learn more

10-Day Weather Forecast

Advertisements
Track Severe Weather on mobile